Аэропорт: Храброво. Калининград

ICAO: UMKK

METAR:
2020-08-13 10:30:00
UMKK 131030Z 04005MPS 020V080 CAVOK 23/11 Q1018 R06/95D NOSIG RMK QFE762/1016
METAR:
2020-08-13 07:56:00
TAF UMKK 130756Z 1309/1409 08003MPS CAVOK BECMG 1311/1313 04003G08MPS BECMG 1317/1319 09003MPS BECMG 1321/1323 15003MPS